sensor_id;sensor_type;location;lat;lon;timestamp;temperature;humidity
12470;DHT22;36499;46.484;13.832;2023-01-16T00:00:17;1.20;99.90
12470;DHT22;36499;46.484;13.832;2023-01-16T00:02:46;1.20;99.90
12470;DHT22;36499;46.484;13.832;2023-01-16T00:05:13;1.20;99.90
12470;DHT22;36499;46.484;13.832;2023-01-16T00:07:41;1.20;99.90
12470;DHT22;36499;46.484;13.832;2023-01-16T00:10:09;1.20;99.90
12470;DHT22;36499;46.484;13.832;2023-01-16T00:12:37;1.20;99.90
12470;DHT22;36499;46.484;13.832;2023-01-16T00:15:05;1.30;99.90
12470;DHT22;36499;46.484;13.832;2023-01-16T00:17:32;1.30;99.90
12470;DHT22;36499;46.484;13.832;2023-01-16T00:19:59;1.20;99.90
12470;DHT22;36499;46.484;13.832;2023-01-16T00:22:27;1.20;99.90
12470;DHT22;36499;46.484;13.832;2023-01-16T00:24:55;1.20;99.90
12470;DHT22;36499;46.484;13.832;2023-01-16T00:27:22;1.10;99.90
12470;DHT22;36499;46.484;13.832;2023-01-16T00:29:49;1.10;99.90
12470;DHT22;36499;46.484;13.832;2023-01-16T00:32:16;1.20;99.90
12470;DHT22;36499;46.484;13.832;2023-01-16T00:34:43;1.20;99.90
12470;DHT22;36499;46.484;13.832;2023-01-16T00:37:10;1.10;99.90
12470;DHT22;36499;46.484;13.832;2023-01-16T00:39:37;1.20;99.90
12470;DHT22;36499;46.484;13.832;2023-01-16T00:42:06;1.10;99.90
12470;DHT22;36499;46.484;13.832;2023-01-16T00:44:34;1.20;99.90
12470;DHT22;36499;46.484;13.832;2023-01-16T00:47:01;1.10;99.90
12470;DHT22;36499;46.484;13.832;2023-01-16T00:49:40;1.20;99.90
12470;DHT22;36499;46.484;13.832;2023-01-16T00:52:08;1.20;99.90
12470;DHT22;36499;46.484;13.832;2023-01-16T00:54:35;1.20;99.90
12470;DHT22;36499;46.484;13.832;2023-01-16T00:57:02;1.20;99.90
12470;DHT22;36499;46.484;13.832;2023-01-16T00:59:31;1.20;99.90
12470;DHT22;36499;46.484;13.832;2023-01-16T01:01:58;1.10;99.90
12470;DHT22;36499;46.484;13.832;2023-01-16T01:04:25;1.10;99.90
12470;DHT22;36499;46.484;13.832;2023-01-16T01:06:54;1.10;99.90
12470;DHT22;36499;46.484;13.832;2023-01-16T01:09:21;1.20;99.90
12470;DHT22;36499;46.484;13.832;2023-01-16T01:11:49;1.20;99.90
12470;DHT22;36499;46.484;13.832;2023-01-16T01:14:16;1.20;99.90
12470;DHT22;36499;46.484;13.832;2023-01-16T01:16:44;1.20;99.90
12470;DHT22;36499;46.484;13.832;2023-01-16T01:19:14;1.10;99.90
12470;DHT22;36499;46.484;13.832;2023-01-16T01:21:42;1.10;99.90
12470;DHT22;36499;46.484;13.832;2023-01-16T01:24:10;1.20;99.90
12470;DHT22;36499;46.484;13.832;2023-01-16T01:26:38;1.20;99.90
12470;DHT22;36499;46.484;13.832;2023-01-16T01:29:06;1.10;99.90
12470;DHT22;36499;46.484;13.832;2023-01-16T01:31:34;1.10;99.90
12470;DHT22;36499;46.484;13.832;2023-01-16T01:34:03;1.10;99.90
12470;DHT22;36499;46.484;13.832;2023-01-16T01:36:30;1.10;99.90
12470;DHT22;36499;46.484;13.832;2023-01-16T01:38:57;1.10;99.90
12470;DHT22;36499;46.484;13.832;2023-01-16T01:41:24;1.20;99.90
12470;DHT22;36499;46.484;13.832;2023-01-16T01:43:53;1.10;99.90
12470;DHT22;36499;46.484;13.832;2023-01-16T01:46:25;1.10;99.90
12470;DHT22;36499;46.484;13.832;2023-01-16T01:49:04;1.20;99.90
12470;DHT22;36499;46.484;13.832;2023-01-16T01:51:40;1.20;99.90
12470;DHT22;36499;46.484;13.832;2023-01-16T01:54:10;1.20;99.90
12470;DHT22;36499;46.484;13.832;2023-01-16T01:56:45;1.20;99.90
12470;DHT22;36499;46.484;13.832;2023-01-16T01:59:20;1.20;99.90
12470;DHT22;36499;46.484;13.832;2023-01-16T02:01:52;1.10;99.90
12470;DHT22;36499;46.484;13.832;2023-01-16T02:04:24;1.10;99.90
12470;DHT22;36499;46.484;13.832;2023-01-16T02:06:57;1.30;99.90
12470;DHT22;36499;46.484;13.832;2023-01-16T02:09:27;1.10;99.90
12470;DHT22;36499;46.484;13.832;2023-01-16T02:11:57;1.20;99.90
12470;DHT22;36499;46.484;13.832;2023-01-16T02:14:40;1.20;99.90
12470;DHT22;36499;46.484;13.832;2023-01-16T02:17:19;1.20;99.90
12470;DHT22;36499;46.484;13.832;2023-01-16T02:20:20;1.20;99.90
12470;DHT22;36499;46.484;13.832;2023-01-16T02:23:26;1.10;99.90
12470;DHT22;36499;46.484;13.832;2023-01-16T02:26:53;1.20;99.90
12470;DHT22;36499;46.484;13.832;2023-01-16T02:30:06;1.10;99.90
12470;DHT22;36499;46.484;13.832;2023-01-16T02:33:17;1.10;99.90
12470;DHT22;36499;46.484;13.832;2023-01-16T02:36:21;1.20;99.90
12470;DHT22;36499;46.484;13.832;2023-01-16T02:39:06;1.10;99.90
12470;DHT22;36499;46.484;13.832;2023-01-16T02:41:48;1.10;99.90
12470;DHT22;36499;46.484;13.832;2023-01-16T02:44:28;1.10;99.90
12470;DHT22;36499;46.484;13.832;2023-01-16T02:47:10;1.10;99.90
12470;DHT22;36499;46.484;13.832;2023-01-16T02:49:49;1.10;99.90
12470;DHT22;36499;46.484;13.832;2023-01-16T02:52:31;1.10;99.90
12470;DHT22;36499;46.484;13.832;2023-01-16T02:55:06;1.10;99.90
12470;DHT22;36499;46.484;13.832;2023-01-16T02:57:46;1.10;99.90
12470;DHT22;36499;46.484;13.832;2023-01-16T03:00:29;1.10;99.90
12470;DHT22;36499;46.484;13.832;2023-01-16T03:02:57;1.00;99.90
12470;DHT22;36499;46.484;13.832;2023-01-16T03:05:30;1.00;99.90
12470;DHT22;36499;46.484;13.832;2023-01-16T03:08:24;1.00;99.90
12470;DHT22;36499;46.484;13.832;2023-01-16T03:11:16;1.00;99.90
12470;DHT22;36499;46.484;13.832;2023-01-16T03:14:11;0.90;99.90
12470;DHT22;36499;46.484;13.832;2023-01-16T03:17:00;1.00;99.90
12470;DHT22;36499;46.484;13.832;2023-01-16T03:19:53;1.00;99.90
12470;DHT22;36499;46.484;13.832;2023-01-16T03:22:44;0.90;99.90
12470;DHT22;36499;46.484;13.832;2023-01-16T03:25:28;0.90;99.90
12470;DHT22;36499;46.484;13.832;2023-01-16T03:28:10;0.90;99.90
12470;DHT22;36499;46.484;13.832;2023-01-16T03:30:50;1.00;99.90
12470;DHT22;36499;46.484;13.832;2023-01-16T03:33:30;1.00;99.90
12470;DHT22;36499;46.484;13.832;2023-01-16T03:36:13;1.00;99.90
12470;DHT22;36499;46.484;13.832;2023-01-16T03:38:50;1.00;99.90
12470;DHT22;36499;46.484;13.832;2023-01-16T03:41:23;1.00;99.90
12470;DHT22;36499;46.484;13.832;2023-01-16T03:43:58;1.00;99.90
12470;DHT22;36499;46.484;13.832;2023-01-16T03:46:37;1.00;99.90
12470;DHT22;36499;46.484;13.832;2023-01-16T03:49:10;1.00;99.90
12470;DHT22;36499;46.484;13.832;2023-01-16T03:51:43;0.90;99.90
12470;DHT22;36499;46.484;13.832;2023-01-16T03:54:24;0.90;99.90
12470;DHT22;36499;46.484;13.832;2023-01-16T03:57:06;0.90;99.90
12470;DHT22;36499;46.484;13.832;2023-01-16T03:59:41;0.90;99.90
12470;DHT22;36499;46.484;13.832;2023-01-16T04:02:30;0.90;99.90
12470;DHT22;36499;46.484;13.832;2023-01-16T04:05:23;0.90;99.90
12470;DHT22;36499;46.484;13.832;2023-01-16T04:07:58;1.00;99.90
12470;DHT22;36499;46.484;13.832;2023-01-16T04:10:34;0.90;99.90
12470;DHT22;36499;46.484;13.832;2023-01-16T04:13:14;0.90;99.90
12470;DHT22;36499;46.484;13.832;2023-01-16T04:15:56;0.90;99.90
12470;DHT22;36499;46.484;13.832;2023-01-16T04:18:31;0.90;99.90
12470;DHT22;36499;46.484;13.832;2023-01-16T04:21:03;0.90;99.90
12470;DHT22;36499;46.484;13.832;2023-01-16T04:23:31;1.00;99.90
12470;DHT22;36499;46.484;13.832;2023-01-16T04:26:02;1.00;99.90
12470;DHT22;36499;46.484;13.832;2023-01-16T04:28:33;1.00;99.90
12470;DHT22;36499;46.484;13.832;2023-01-16T04:31:00;0.90;99.90
12470;DHT22;36499;46.484;13.832;2023-01-16T04:33:27;0.90;99.90
12470;DHT22;36499;46.484;13.832;2023-01-16T04:35:54;0.90;99.90
12470;DHT22;36499;46.484;13.832;2023-01-16T04:38:21;0.90;99.90
12470;DHT22;36499;46.484;13.832;2023-01-16T04:40:52;0.90;99.90
12470;DHT22;36499;46.484;13.832;2023-01-16T04:43:22;0.90;99.90
12470;DHT22;36499;46.484;13.832;2023-01-16T04:45:49;0.90;99.90
12470;DHT22;36499;46.484;13.832;2023-01-16T04:48:16;1.10;99.90
12470;DHT22;36499;46.484;13.832;2023-01-16T04:50:47;0.90;99.90
12470;DHT22;36499;46.484;13.832;2023-01-16T04:53:17;1.10;99.90
12470;DHT22;36499;46.484;13.832;2023-01-16T04:55:44;0.90;99.90
12470;DHT22;36499;46.484;13.832;2023-01-16T04:58:11;1.00;99.90
12470;DHT22;36499;46.484;13.832;2023-01-16T05:00:39;1.00;99.90
12470;DHT22;36499;46.484;13.832;2023-01-16T05:03:14;1.00;99.90
12470;DHT22;36499;46.484;13.832;2023-01-16T05:05:42;1.00;99.90
12470;DHT22;36499;46.484;13.832;2023-01-16T05:08:14;1.00;99.90
12470;DHT22;36499;46.484;13.832;2023-01-16T05:10:51;0.90;99.90
12470;DHT22;36499;46.484;13.832;2023-01-16T05:13:18;0.90;99.90
12470;DHT22;36499;46.484;13.832;2023-01-16T05:15:46;0.90;99.90
12470;DHT22;36499;46.484;13.832;2023-01-16T05:18:25;0.90;99.90
12470;DHT22;36499;46.484;13.832;2023-01-16T05:20:58;0.90;99.90
12470;DHT22;36499;46.484;13.832;2023-01-16T05:23:26;0.90;99.90
12470;DHT22;36499;46.484;13.832;2023-01-16T05:25:53;0.90;99.90
12470;DHT22;36499;46.484;13.832;2023-01-16T05:28:20;0.90;99.90
12470;DHT22;36499;46.484;13.832;2023-01-16T05:30:49;0.80;99.90
12470;DHT22;36499;46.484;13.832;2023-01-16T05:33:17;0.90;99.90
12470;DHT22;36499;46.484;13.832;2023-01-16T05:35:49;0.90;99.90
12470;DHT22;36499;46.484;13.832;2023-01-16T05:38:18;0.80;99.90
12470;DHT22;36499;46.484;13.832;2023-01-16T05:40:45;0.90;99.90
12470;DHT22;36499;46.484;13.832;2023-01-16T05:43:12;0.80;99.90
12470;DHT22;36499;46.484;13.832;2023-01-16T05:45:40;0.90;99.90
12470;DHT22;36499;46.484;13.832;2023-01-16T05:48:08;0.80;99.90
12470;DHT22;36499;46.484;13.832;2023-01-16T05:50:42;0.80;99.90
12470;DHT22;36499;46.484;13.832;2023-01-16T05:53:13;0.70;99.90
12470;DHT22;36499;46.484;13.832;2023-01-16T05:55:42;0.80;99.90
12470;DHT22;36499;46.484;13.832;2023-01-16T05:58:11;0.80;99.90
12470;DHT22;36499;46.484;13.832;2023-01-16T06:00:41;0.80;99.90
12470;DHT22;36499;46.484;13.832;2023-01-16T06:03:10;0.80;99.90
12470;DHT22;36499;46.484;13.832;2023-01-16T06:05:37;0.80;99.90
12470;DHT22;36499;46.484;13.832;2023-01-16T06:08:04;0.80;99.90
12470;DHT22;36499;46.484;13.832;2023-01-16T06:10:34;0.80;99.90
12470;DHT22;36499;46.484;13.832;2023-01-16T06:13:02;0.90;99.90
12470;DHT22;36499;46.484;13.832;2023-01-16T06:15:29;0.80;99.90
12470;DHT22;36499;46.484;13.832;2023-01-16T06:17:57;0.70;99.90
12470;DHT22;36499;46.484;13.832;2023-01-16T06:20:25;0.70;99.90
12470;DHT22;36499;46.484;13.832;2023-01-16T06:22:52;0.70;99.90
12470;DHT22;36499;46.484;13.832;2023-01-16T06:25:19;0.70;99.90
12470;DHT22;36499;46.484;13.832;2023-01-16T06:27:48;0.70;99.90
12470;DHT22;36499;46.484;13.832;2023-01-16T06:30:20;0.70;99.90
12470;DHT22;36499;46.484;13.832;2023-01-16T06:32:48;0.80;99.90
12470;DHT22;36499;46.484;13.832;2023-01-16T06:35:16;0.80;99.90
12470;DHT22;36499;46.484;13.832;2023-01-16T06:37:45;0.80;99.90
12470;DHT22;36499;46.484;13.832;2023-01-16T06:40:12;0.80;99.90
12470;DHT22;36499;46.484;13.832;2023-01-16T06:42:39;0.90;99.90
12470;DHT22;36499;46.484;13.832;2023-01-16T06:45:07;0.80;99.90
12470;DHT22;36499;46.484;13.832;2023-01-16T06:47:34;0.80;99.90
12470;DHT22;36499;46.484;13.832;2023-01-16T06:50:01;0.80;99.90
12470;DHT22;36499;46.484;13.832;2023-01-16T06:52:29;0.80;99.90
12470;DHT22;36499;46.484;13.832;2023-01-16T06:54:57;0.80;99.90
12470;DHT22;36499;46.484;13.832;2023-01-16T06:57:24;0.80;99.90
12470;DHT22;36499;46.484;13.832;2023-01-16T06:59:51;0.80;99.90
12470;DHT22;36499;46.484;13.832;2023-01-16T07:02:18;0.90;99.90
12470;DHT22;36499;46.484;13.832;2023-01-16T07:04:45;0.80;99.90
12470;DHT22;36499;46.484;13.832;2023-01-16T07:07:13;0.80;99.90
12470;DHT22;36499;46.484;13.832;2023-01-16T07:09:40;0.80;99.90
12470;DHT22;36499;46.484;13.832;2023-01-16T07:12:08;0.80;99.90
12470;DHT22;36499;46.484;13.832;2023-01-16T07:14:36;0.80;99.90
12470;DHT22;36499;46.484;13.832;2023-01-16T07:17:20;0.80;99.90
12470;DHT22;36499;46.484;13.832;2023-01-16T07:20:06;0.80;99.90
12470;DHT22;36499;46.484;13.832;2023-01-16T07:22:53;0.80;99.90
12470;DHT22;36499;46.484;13.832;2023-01-16T07:25:31;0.80;99.90
12470;DHT22;36499;46.484;13.832;2023-01-16T07:28:07;0.80;99.90
12470;DHT22;36499;46.484;13.832;2023-01-16T07:30:36;0.80;99.90
12470;DHT22;36499;46.484;13.832;2023-01-16T07:33:04;0.70;99.90
12470;DHT22;36499;46.484;13.832;2023-01-16T07:35:31;0.70;99.90
12470;DHT22;36499;46.484;13.832;2023-01-16T07:37:58;0.70;99.90
12470;DHT22;36499;46.484;13.832;2023-01-16T07:40:25;0.70;99.90
12470;DHT22;36499;46.484;13.832;2023-01-16T07:42:52;0.70;99.90
12470;DHT22;36499;46.484;13.832;2023-01-16T07:45:21;0.70;99.90
12470;DHT22;36499;46.484;13.832;2023-01-16T07:47:51;0.70;99.90
12470;DHT22;36499;46.484;13.832;2023-01-16T07:50:18;0.60;99.90
12470;DHT22;36499;46.484;13.832;2023-01-16T07:52:45;0.70;99.90
12470;DHT22;36499;46.484;13.832;2023-01-16T07:55:12;0.70;99.90
12470;DHT22;36499;46.484;13.832;2023-01-16T07:57:40;0.70;99.90
12470;DHT22;36499;46.484;13.832;2023-01-16T08:00:25;0.70;99.90
12470;DHT22;36499;46.484;13.832;2023-01-16T08:02:57;0.70;99.90
12470;DHT22;36499;46.484;13.832;2023-01-16T08:05:24;0.80;99.90
12470;DHT22;36499;46.484;13.832;2023-01-16T08:07:53;0.80;99.90
12470;DHT22;36499;46.484;13.832;2023-01-16T08:10:20;0.90;99.90
12470;DHT22;36499;46.484;13.832;2023-01-16T08:12:47;0.90;99.90
12470;DHT22;36499;46.484;13.832;2023-01-16T08:15:14;1.00;99.90
12470;DHT22;36499;46.484;13.832;2023-01-16T08:17:43;1.00;99.90
12470;DHT22;36499;46.484;13.832;2023-01-16T08:20:11;1.10;99.90
12470;DHT22;36499;46.484;13.832;2023-01-16T08:22:42;1.20;99.90
12470;DHT22;36499;46.484;13.832;2023-01-16T08:25:11;1.20;99.90
12470;DHT22;36499;46.484;13.832;2023-01-16T08:27:39;1.30;99.90
12470;DHT22;36499;46.484;13.832;2023-01-16T08:30:07;1.30;99.90
12470;DHT22;36499;46.484;13.832;2023-01-16T08:32:35;1.40;99.90
12470;DHT22;36499;46.484;13.832;2023-01-16T08:35:05;1.50;99.90
12470;DHT22;36499;46.484;13.832;2023-01-16T08:37:35;1.60;99.90
12470;DHT22;36499;46.484;13.832;2023-01-16T08:40:02;1.60;99.90
12470;DHT22;36499;46.484;13.832;2023-01-16T08:42:30;1.70;99.90
12470;DHT22;36499;46.484;13.832;2023-01-16T08:45:15;1.70;99.90
12470;DHT22;36499;46.484;13.832;2023-01-16T08:48:00;1.80;99.90
12470;DHT22;36499;46.484;13.832;2023-01-16T08:50:47;1.90;99.90
12470;DHT22;36499;46.484;13.832;2023-01-16T08:53:31;1.90;99.90
12470;DHT22;36499;46.484;13.832;2023-01-16T08:55:59;1.90;99.90
12470;DHT22;36499;46.484;13.832;2023-01-16T08:58:26;2.00;99.90
12470;DHT22;36499;46.484;13.832;2023-01-16T09:00:53;2.00;99.90
12470;DHT22;36499;46.484;13.832;2023-01-16T09:03:20;2.00;99.90
12470;DHT22;36499;46.484;13.832;2023-01-16T09:05:48;2.10;99.90
12470;DHT22;36499;46.484;13.832;2023-01-16T09:08:15;2.10;99.90
12470;DHT22;36499;46.484;13.832;2023-01-16T09:10:43;2.10;99.90
12470;DHT22;36499;46.484;13.832;2023-01-16T09:13:30;2.10;99.90
12470;DHT22;36499;46.484;13.832;2023-01-16T09:16:14;2.00;99.90
12470;DHT22;36499;46.484;13.832;2023-01-16T09:18:41;1.90;99.90
12470;DHT22;36499;46.484;13.832;2023-01-16T09:21:10;1.90;99.90
12470;DHT22;36499;46.484;13.832;2023-01-16T09:23:37;2.00;99.90
12470;DHT22;36499;46.484;13.832;2023-01-16T09:26:04;2.00;99.90
12470;DHT22;36499;46.484;13.832;2023-01-16T09:28:31;2.10;99.90
12470;DHT22;36499;46.484;13.832;2023-01-16T09:30:58;2.20;99.90
12470;DHT22;36499;46.484;13.832;2023-01-16T09:33:26;2.30;99.90
12470;DHT22;36499;46.484;13.832;2023-01-16T09:35:53;2.30;99.90
12470;DHT22;36499;46.484;13.832;2023-01-16T09:38:21;2.30;99.90
12470;DHT22;36499;46.484;13.832;2023-01-16T09:40:53;2.30;99.90
12470;DHT22;36499;46.484;13.832;2023-01-16T09:43:34;2.30;99.90
12470;DHT22;36499;46.484;13.832;2023-01-16T09:46:05;2.30;99.90
12470;DHT22;36499;46.484;13.832;2023-01-16T09:48:40;2.20;99.90
12470;DHT22;36499;46.484;13.832;2023-01-16T09:51:16;2.30;99.90
12470;DHT22;36499;46.484;13.832;2023-01-16T09:53:51;2.40;99.90
12470;DHT22;36499;46.484;13.832;2023-01-16T09:56:41;2.40;99.90
12470;DHT22;36499;46.484;13.832;2023-01-16T09:59:34;2.60;99.90
12470;DHT22;36499;46.484;13.832;2023-01-16T10:02:14;2.40;99.90
12470;DHT22;36499;46.484;13.832;2023-01-16T10:04:48;2.30;99.90
12470;DHT22;36499;46.484;13.832;2023-01-16T10:07:41;2.10;99.90
12470;DHT22;36499;46.484;13.832;2023-01-16T10:10:38;2.10;99.90
12470;DHT22;36499;46.484;13.832;2023-01-16T10:16:33;2.10;99.90
12470;DHT22;36499;46.484;13.832;2023-01-16T10:19:17;2.10;99.90
12470;DHT22;36499;46.484;13.832;2023-01-16T10:22:03;2.20;99.90
12470;DHT22;36499;46.484;13.832;2023-01-16T10:24:50;2.20;99.90
12470;DHT22;36499;46.484;13.832;2023-01-16T10:27:35;2.30;99.90
12470;DHT22;36499;46.484;13.832;2023-01-16T10:30:14;2.40;99.90
12470;DHT22;36499;46.484;13.832;2023-01-16T10:32:50;2.40;99.90
12470;DHT22;36499;46.484;13.832;2023-01-16T10:35:28;2.40;99.90
12470;DHT22;36499;46.484;13.832;2023-01-16T10:38:02;2.40;99.90
12470;DHT22;36499;46.484;13.832;2023-01-16T10:40:42;2.50;99.90
12470;DHT22;36499;46.484;13.832;2023-01-16T10:43:15;2.50;99.90
12470;DHT22;36499;46.484;13.832;2023-01-16T10:46:11;2.40;99.90
12470;DHT22;36499;46.484;13.832;2023-01-16T10:48:59;2.40;99.90
12470;DHT22;36499;46.484;13.832;2023-01-16T10:51:44;2.30;99.90
12470;DHT22;36499;46.484;13.832;2023-01-16T10:54:11;2.20;99.90
12470;DHT22;36499;46.484;13.832;2023-01-16T10:56:38;2.20;99.90
12470;DHT22;36499;46.484;13.832;2023-01-16T10:59:07;2.20;99.90
12470;DHT22;36499;46.484;13.832;2023-01-16T11:01:37;2.20;99.90
12470;DHT22;36499;46.484;13.832;2023-01-16T11:04:10;2.30;99.90
12470;DHT22;36499;46.484;13.832;2023-01-16T11:06:38;2.30;99.90
12470;DHT22;36499;46.484;13.832;2023-01-16T11:09:17;2.20;99.90
12470;DHT22;36499;46.484;13.832;2023-01-16T11:11:49;2.20;99.90
12470;DHT22;36499;46.484;13.832;2023-01-16T11:14:38;2.20;99.90
12470;DHT22;36499;46.484;13.832;2023-01-16T11:17:27;2.20;99.90
12470;DHT22;36499;46.484;13.832;2023-01-16T11:20:16;2.20;99.90
12470;DHT22;36499;46.484;13.832;2023-01-16T11:22:48;2.20;99.90
12470;DHT22;36499;46.484;13.832;2023-01-16T11:25:23;2.30;99.90
12470;DHT22;36499;46.484;13.832;2023-01-16T11:27:54;2.40;99.90
12470;DHT22;36499;46.484;13.832;2023-01-16T11:30:31;2.50;99.90
12470;DHT22;36499;46.484;13.832;2023-01-16T11:33:01;2.60;99.90
12470;DHT22;36499;46.484;13.832;2023-01-16T11:35:35;2.60;99.90
12470;DHT22;36499;46.484;13.832;2023-01-16T11:38:04;2.60;99.90
12470;DHT22;36499;46.484;13.832;2023-01-16T11:40:36;2.60;99.90
12470;DHT22;36499;46.484;13.832;2023-01-16T11:43:14;2.60;99.90
12470;DHT22;36499;46.484;13.832;2023-01-16T11:46:05;2.70;99.90
12470;DHT22;36499;46.484;13.832;2023-01-16T11:48:45;2.60;99.90
12470;DHT22;36499;46.484;13.832;2023-01-16T11:51:16;2.50;99.90
12470;DHT22;36499;46.484;13.832;2023-01-16T11:53:47;2.40;99.90
12470;DHT22;36499;46.484;13.832;2023-01-16T11:56:41;2.40;99.90
12470;DHT22;36499;46.484;13.832;2023-01-16T11:59:46;2.40;99.90
12470;DHT22;36499;46.484;13.832;2023-01-16T12:05:59;2.40;99.90
12470;DHT22;36499;46.484;13.832;2023-01-16T12:12:07;2.40;99.90
12470;DHT22;36499;46.484;13.832;2023-01-16T12:14:58;2.30;99.90
12470;DHT22;36499;46.484;13.832;2023-01-16T12:17:41;2.20;99.90
12470;DHT22;36499;46.484;13.832;2023-01-16T12:20:20;2.20;99.90
12470;DHT22;36499;46.484;13.832;2023-01-16T12:23:19;2.20;99.90
12470;DHT22;36499;46.484;13.832;2023-01-16T12:26:14;2.20;99.90
12470;DHT22;36499;46.484;13.832;2023-01-16T12:28:57;2.20;99.90
12470;DHT22;36499;46.484;13.832;2023-01-16T12:31:54;2.30;99.90
12470;DHT22;36499;46.484;13.832;2023-01-16T12:34:51;2.20;99.90
12470;DHT22;36499;46.484;13.832;2023-01-16T12:37:52;2.20;99.90
12470;DHT22;36499;46.484;13.832;2023-01-16T12:44:12;2.10;99.90
12470;DHT22;36499;46.484;13.832;2023-01-16T12:46:59;2.10;99.90
12470;DHT22;36499;46.484;13.832;2023-01-16T12:49:52;2.10;99.90
12470;DHT22;36499;46.484;13.832;2023-01-16T12:52:43;2.10;99.90
12470;DHT22;36499;46.484;13.832;2023-01-16T12:55:30;2.10;99.90
12470;DHT22;36499;46.484;13.832;2023-01-16T12:58:14;2.10;99.90
12470;DHT22;36499;46.484;13.832;2023-01-16T13:00:48;2.10;99.90
12470;DHT22;36499;46.484;13.832;2023-01-16T13:03:26;2.10;99.90
12470;DHT22;36499;46.484;13.832;2023-01-16T13:06:00;2.00;99.90
12470;DHT22;36499;46.484;13.832;2023-01-16T13:08:33;2.00;99.90
12470;DHT22;36499;46.484;13.832;2023-01-16T13:11:12;2.00;99.90
12470;DHT22;36499;46.484;13.832;2023-01-16T13:14:06;1.90;99.90
12470;DHT22;36499;46.484;13.832;2023-01-16T13:16:39;1.90;99.90
12470;DHT22;36499;46.484;13.832;2023-01-16T13:19:15;1.90;99.90
12470;DHT22;36499;46.484;13.832;2023-01-16T13:22:02;1.90;99.90
12470;DHT22;36499;46.484;13.832;2023-01-16T13:24:41;2.00;99.90
12470;DHT22;36499;46.484;13.832;2023-01-16T13:27:19;2.00;99.90
12470;DHT22;36499;46.484;13.832;2023-01-16T13:29:55;2.00;99.90
12470;DHT22;36499;46.484;13.832;2023-01-16T13:32:35;2.00;99.90
12470;DHT22;36499;46.484;13.832;2023-01-16T13:35:15;1.90;99.90
12470;DHT22;36499;46.484;13.832;2023-01-16T13:38:10;1.90;99.90
12470;DHT22;36499;46.484;13.832;2023-01-16T13:41:14;1.90;99.90
12470;DHT22;36499;46.484;13.832;2023-01-16T13:43:50;1.90;99.90
12470;DHT22;36499;46.484;13.832;2023-01-16T13:46:40;1.90;99.90
12470;DHT22;36499;46.484;13.832;2023-01-16T13:49:15;1.80;99.90
12470;DHT22;36499;46.484;13.832;2023-01-16T13:51:48;1.80;99.90
12470;DHT22;36499;46.484;13.832;2023-01-16T13:54:19;1.80;99.90
12470;DHT22;36499;46.484;13.832;2023-01-16T13:56:59;1.70;99.90
12470;DHT22;36499;46.484;13.832;2023-01-16T13:59:44;1.60;99.90
12470;DHT22;36499;46.484;13.832;2023-01-16T14:02:39;1.70;99.90
12470;DHT22;36499;46.484;13.832;2023-01-16T14:05:25;1.60;99.90
12470;DHT22;36499;46.484;13.832;2023-01-16T14:08:44;1.60;99.90
12470;DHT22;36499;46.484;13.832;2023-01-16T14:11:39;1.60;99.90
12470;DHT22;36499;46.484;13.832;2023-01-16T14:18:02;1.40;99.90
12470;DHT22;36499;46.484;13.832;2023-01-16T14:20:49;1.30;99.90
12470;DHT22;36499;46.484;13.832;2023-01-16T14:23:23;1.20;99.90
12470;DHT22;36499;46.484;13.832;2023-01-16T14:26:18;1.20;99.90
12470;DHT22;36499;46.484;13.832;2023-01-16T14:28:53;1.10;99.90
12470;DHT22;36499;46.484;13.832;2023-01-16T14:31:25;1.10;99.90
12470;DHT22;36499;46.484;13.832;2023-01-16T14:33:57;0.90;99.90
12470;DHT22;36499;46.484;13.832;2023-01-16T14:36:27;0.90;99.90
12470;DHT22;36499;46.484;13.832;2023-01-16T14:39:00;0.90;99.90
12470;DHT22;36499;46.484;13.832;2023-01-16T14:41:29;0.90;99.90
12470;DHT22;36499;46.484;13.832;2023-01-16T14:44:17;0.80;99.90
12470;DHT22;36499;46.484;13.832;2023-01-16T14:47:23;0.80;99.90
12470;DHT22;36499;46.484;13.832;2023-01-16T14:50:16;0.80;99.90
12470;DHT22;36499;46.484;13.832;2023-01-16T14:53:16;0.80;99.90
12470;DHT22;36499;46.484;13.832;2023-01-16T14:56:10;0.70;99.90
12470;DHT22;36499;46.484;13.832;2023-01-16T14:58:55;0.70;99.90
12470;DHT22;36499;46.484;13.832;2023-01-16T15:01:34;0.60;99.90
12470;DHT22;36499;46.484;13.832;2023-01-16T15:04:30;0.60;99.90
12470;DHT22;36499;46.484;13.832;2023-01-16T15:07:05;0.50;99.90
12470;DHT22;36499;46.484;13.832;2023-01-16T15:09:37;0.50;99.90
12470;DHT22;36499;46.484;13.832;2023-01-16T15:12:17;0.50;99.90
12470;DHT22;36499;46.484;13.832;2023-01-16T15:14:53;0.50;99.90
12470;DHT22;36499;46.484;13.832;2023-01-16T15:17:27;0.50;99.90
12470;DHT22;36499;46.484;13.832;2023-01-16T15:20:24;0.60;99.90
12470;DHT22;36499;46.484;13.832;2023-01-16T15:23:21;0.60;99.90
12470;DHT22;36499;46.484;13.832;2023-01-16T15:28:59;0.60;99.90
12470;DHT22;36499;46.484;13.832;2023-01-16T15:31:39;0.60;99.90
12470;DHT22;36499;46.484;13.832;2023-01-16T15:34:19;0.60;99.90
12470;DHT22;36499;46.484;13.832;2023-01-16T15:36:52;0.60;99.90
12470;DHT22;36499;46.484;13.832;2023-01-16T15:39:23;0.60;99.90
12470;DHT22;36499;46.484;13.832;2023-01-16T15:41:55;0.60;99.90
12470;DHT22;36499;46.484;13.832;2023-01-16T15:44:44;0.60;99.90
12470;DHT22;36499;46.484;13.832;2023-01-16T15:47:53;0.60;99.90
12470;DHT22;36499;46.484;13.832;2023-01-16T15:50:57;0.50;99.90
12470;DHT22;36499;46.484;13.832;2023-01-16T15:53:36;0.50;99.90
12470;DHT22;36499;46.484;13.832;2023-01-16T15:56:18;0.40;99.90
12470;DHT22;36499;46.484;13.832;2023-01-16T15:58:59;0.40;99.90
12470;DHT22;36499;46.484;13.832;2023-01-16T16:01:36;0.30;99.90
12470;DHT22;36499;46.484;13.832;2023-01-16T16:04:03;0.30;99.90
12470;DHT22;36499;46.484;13.832;2023-01-16T16:06:33;0.20;99.90
12470;DHT22;36499;46.484;13.832;2023-01-16T16:09:05;0.20;99.90
12470;DHT22;36499;46.484;13.832;2023-01-16T16:11:42;0.20;99.90
12470;DHT22;36499;46.484;13.832;2023-01-16T16:14:21;0.20;99.90
12470;DHT22;36499;46.484;13.832;2023-01-16T16:17:21;0.20;99.90
12470;DHT22;36499;46.484;13.832;2023-01-16T16:20:27;0.10;99.90
12470;DHT22;36499;46.484;13.832;2023-01-16T16:23:01;0.20;99.90
12470;DHT22;36499;46.484;13.832;2023-01-16T16:25:35;0.20;99.90
12470;DHT22;36499;46.484;13.832;2023-01-16T16:28:18;0.20;99.90
12470;DHT22;36499;46.484;13.832;2023-01-16T16:30:55;0.20;99.90
12470;DHT22;36499;46.484;13.832;2023-01-16T16:33:28;0.40;99.90
12470;DHT22;36499;46.484;13.832;2023-01-16T16:36:03;0.30;99.90
12470;DHT22;36499;46.484;13.832;2023-01-16T16:38:41;0.30;99.90
12470;DHT22;36499;46.484;13.832;2023-01-16T16:44:42;0.30;99.90
12470;DHT22;36499;46.484;13.832;2023-01-16T16:47:24;0.40;99.90
12470;DHT22;36499;46.484;13.832;2023-01-16T16:49:55;0.40;99.90